Time;durP1;ratioP1;P1;durP2;ratioP2;P2;SDS_P1;SDS_P2;PMS_P1;PMS_P2;Temp;Humidity;BMP_temperature;BMP_pressure;BME280_temperature;BME280_humidity;BME280_pressure;Samples;Min_cycle;Max_cycle;Signal;HPM_P1;HPM_P2
2021/11/06 00:00:58;;;;;;;;;30.00;28.50;;;;;10.45;58.02;102609.22;4979998;28;45264;-66
2021/11/06 00:03:23;;;;;;;;;34.00;31.50;;;;;10.45;58.25;102614.47;4956834;28;45311;-66
2021/11/06 00:05:48;;;;;;;;;30.50;28.25;;;;;10.43;58.34;102613.53;4961110;28;46059;-66
2021/11/06 00:08:14;;;;;;;;;31.25;27.75;;;;;10.40;58.21;102614.38;4987155;28;45246;-66
2021/11/06 00:10:40;;;;;;;;;25.75;25.25;;;;;10.36;58.49;102613.47;4964898;28;45269;-66
2021/11/06 00:13:05;;;;;;;;;35.50;30.75;;;;;10.35;58.24;102616.03;4968604;28;45361;-66
2021/11/06 00:15:31;;;;;;;;;32.75;28.00;;;;;10.29;58.33;102610.66;4956509;28;45813;-66
2021/11/06 00:17:57;;;;;;;;;33.00;28.00;;;;;10.31;58.23;102616.84;4964878;28;45282;-66
2021/11/06 00:20:22;;;;;;;;;37.75;31.00;;;;;10.24;58.30;102619.34;4960796;28;45502;-67
2021/11/06 00:22:48;;;;;;;;;32.75;30.00;;;;;10.27;58.25;102622.91;4960586;28;45513;-66
2021/11/06 00:25:14;;;;;;;;;36.50;32.25;;;;;10.22;58.27;102628.06;4975443;28;47932;-66
2021/11/06 00:27:40;;;;;;;;;40.00;33.00;;;;;10.20;58.63;102628.06;4960495;27;45369;-66
2021/11/06 00:30:08;;;;;;;;;34.25;31.50;;;;;10.21;58.30;102626.31;4960643;28;45282;-66
2021/11/06 00:32:34;;;;;;;;;35.50;33.25;;;;;10.11;58.34;102617.38;4960651;28;45481;-66
2021/11/06 00:35:00;;;;;;;;;38.00;33.50;;;;;10.15;58.37;102624.47;4960367;28;45325;-66
2021/11/06 00:37:27;;;;;;;;;39.25;35.50;;;;;10.13;58.66;102634.06;4959156;28;45475;-66
2021/11/06 00:39:53;;;;;;;;;30.75;27.50;;;;;10.09;58.56;102625.22;4959379;28;45497;-66
2021/11/06 00:42:19;;;;;;;;;34.75;32.75;;;;;10.05;58.48;102620.78;4979240;27;45492;-66
2021/11/06 00:44:45;;;;;;;;;32.50;25.25;;;;;10.07;58.67;102621.72;4977581;27;46910;-66
2021/11/06 00:47:11;;;;;;;;;36.50;33.00;;;;;10.05;58.47;102622.50;4960380;28;45486;-66
2021/11/06 00:49:37;;;;;;;;;40.75;32.50;;;;;10.03;58.64;102619.84;4960377;28;45347;-66
2021/11/06 00:52:04;;;;;;;;;37.75;32.50;;;;;10.01;58.37;102616.34;4971667;28;45466;-66
2021/11/06 00:54:30;;;;;;;;;39.25;34.75;;;;;9.99;58.66;102620.66;4961159;28;45432;-66
2021/11/06 00:56:55;;;;;;;;;37.75;34.75;;;;;9.98;58.43;102616.28;4975078;27;45257;-66
2021/11/06 00:59:20;;;;;;;;;42.75;38.00;;;;;9.96;58.46;102622.34;4973240;28;45673;-64
2021/11/06 01:01:46;;;;;;;;;48.25;39.00;;;;;9.94;58.49;102614.44;4960104;28;45580;-64
2021/11/06 01:04:11;;;;;;;;;44.75;39.50;;;;;9.91;58.68;102604.78;4960015;28;45367;-64
2021/11/06 01:06:37;;;;;;;;;55.00;43.00;;;;;9.87;58.66;102608.22;4958643;27;45366;-65
2021/11/06 01:09:04;;;;;;;;;58.00;44.25;;;;;9.84;58.70;102602.03;4960253;28;45315;-65
2021/11/06 01:11:30;;;;;;;;;58.75;47.50;;;;;9.84;58.53;102599.38;4967834;28;45581;-66
2021/11/06 01:13:56;;;;;;;;;58.50;45.75;;;;;9.85;58.77;102603.75;4962905;28;47150;-66
2021/11/06 01:16:21;;;;;;;;;65.00;50.00;;;;;9.82;58.80;102599.34;4959939;28;45457;-66
2021/11/06 01:18:47;;;;;;;;;68.00;53.50;;;;;9.80;58.59;102595.81;4959998;28;45513;-66
2021/11/06 01:21:13;;;;;;;;;70.00;55.25;;;;;9.76;58.76;102600.13;4958643;28;45360;-65
2021/11/06 01:23:38;;;;;;;;;68.50;54.50;;;;;9.73;58.89;102605.31;4959548;28;46527;-65
2021/11/06 01:26:03;;;;;;;;;68.50;53.50;;;;;9.70;58.80;102607.88;4959816;28;45438;-65
2021/11/06 01:28:30;;;;;;;;;72.25;56.00;;;;;9.69;58.65;102613.97;4959517;28;45313;-65
2021/11/06 01:30:55;;;;;;;;;72.25;55.75;;;;;9.66;58.75;102615.66;4959963;28;45245;-64
2021/11/06 01:33:21;;;;;;;;;70.25;53.00;;;;;9.63;58.75;102613.84;4959635;28;45148;-65
2021/11/06 01:35:47;;;;;;;;;68.75;55.25;;;;;9.61;58.82;102610.34;4959684;28;45277;-65
2021/11/06 01:38:13;;;;;;;;;69.25;55.25;;;;;9.57;58.65;102605.84;4959541;28;45499;-65
2021/11/06 01:40:38;;;;;;;;;64.75;52.50;;;;;9.55;58.80;102603.22;4958447;28;45662;-65
2021/11/06 01:43:04;;;;;;;;;73.00;55.25;;;;;9.54;58.96;102611.06;4959327;28;47033;-65
2021/11/06 01:45:29;;;;;;;;;69.25;55.75;;;;;9.51;58.78;102605.72;4959478;28;45399;-65
2021/11/06 01:47:55;;;;;;;;;70.75;57.00;;;;;9.48;59.04;102603.06;4959570;28;45380;-65
2021/11/06 01:50:22;;;;;;;;;72.75;56.25;;;;;9.43;59.05;102596.00;4966988;28;45470;-65
2021/11/06 01:52:48;;;;;;;;;64.75;51.25;;;;;9.42;58.76;102604.72;4964888;28;45379;-65
2021/11/06 01:55:15;;;;;;;;;76.00;60.25;;;;;9.40;58.92;102595.91;4980311;28;45224;-65
2021/11/06 01:57:40;;;;;;;;;69.75;54.25;;;;;9.38;58.94;102602.88;4964700;28;45190;-65
2021/11/06 02:00:16;;;;;;;;;69.75;54.25;;;;;9.33;58.89;102596.63;4959462;28;45292;-65
2021/11/06 02:02:42;;;;;;;;;69.25;54.50;;;;;9.36;59.00;102601.09;4959481;28;46400;-65
2021/11/06 02:05:08;;;;;;;;;65.75;50.25;;;;;9.33;58.76;102606.25;4959298;28;45273;-65
2021/11/06 02:07:35;;;;;;;;;55.25;46.00;;;;;9.29;58.90;102600.06;4959294;28;45340;-65
2021/11/06 02:10:00;;;;;;;;;62.75;50.00;;;;;9.27;59.06;102605.28;4959685;28;45277;-65
2021/11/06 02:12:26;;;;;;;;;59.75;47.25;;;;;9.27;59.09;102607.03;4971914;28;46266;-64
2021/11/06 02:14:52;;;;;;;;;63.50;48.50;;;;;9.24;58.92;102609.56;4959377;28;45394;-64
2021/11/06 02:17:18;;;;;;;;;61.50;48.50;;;;;9.21;59.20;102596.41;4959053;28;45248;-65
2021/11/06 02:19:43;;;;;;;;;54.75;43.50;;;;;9.22;58.97;102614.78;4959378;28;45264;-65
2021/11/06 02:22:09;;;;;;;;;58.25;45.50;;;;;9.20;59.18;102608.63;4958821;28;45232;-65
2021/11/06 02:24:35;;;;;;;;;52.75;45.50;;;;;9.20;59.16;102607.75;4959422;28;45217;-65
2021/11/06 02:27:00;;;;;;;;;57.75;45.75;;;;;9.18;59.04;102614.69;4974368;28;45296;-65
2021/11/06 02:29:26;;;;;;;;;56.25;45.75;;;;;9.14;59.19;102610.22;4968399;28;45476;-66
2021/11/06 02:31:51;;;;;;;;;55.25;45.50;;;;;9.13;59.07;102617.19;4958955;28;45223;-65
2021/11/06 02:34:17;;;;;;;;;58.50;46.25;;;;;9.13;59.13;102618.94;4959141;28;45349;-65
2021/11/06 02:36:42;;;;;;;;;52.25;43.75;;;;;9.09;59.29;102618.91;4958876;28;45443;-65
2021/11/06 02:39:08;;;;;;;;;47.75;39.75;;;;;9.08;59.44;102610.97;4958073;28;45386;-64
2021/11/06 02:41:34;;;;;;;;;55.25;45.00;;;;;9.06;59.30;102603.06;4974558;28;48172;-65
2021/11/06 02:44:11;;;;;;;;;56.00;45.75;;;;;9.05;59.38;102614.41;4967960;28;45329;-65
2021/11/06 02:46:38;;;;;;;;;61.50;49.00;;;;;9.02;59.29;102603.88;4988984;28;45457;-65
2021/11/06 02:49:05;;;;;;;;;51.50;42.25;;;;;9.00;59.35;102594.19;4960951;28;45358;-65
2021/11/06 02:51:31;;;;;;;;;54.75;45.00;;;;;9.01;59.38;102609.09;4970366;28;48084;-65
2021/11/06 02:53:56;;;;;;;;;54.75;43.00;;;;;8.99;59.38;102609.03;4958866;28;45339;-65
2021/11/06 02:56:26;;;;;;;;;58.75;45.25;;;;;8.97;59.48;102600.25;4984515;28;45267;-65
2021/11/06 02:58:52;;;;;;;;;52.00;43.00;;;;;8.95;59.46;102604.56;4958717;28;45549;-65
2021/11/06 03:01:17;;;;;;;;;54.75;43.50;;;;;8.90;59.29;102598.34;4958521;28;46453;-65
2021/11/06 03:03:43;;;;;;;;;54.25;42.75;;;;;8.91;59.41;102600.13;4965093;28;45276;-65
2021/11/06 03:06:08;;;;;;;;;54.75;44.00;;;;;8.86;59.26;102600.00;4958809;28;45301;-65
2021/11/06 03:08:34;;;;;;;;;49.00;39.50;;;;;8.86;59.37;102601.75;4958520;28;45403;-65
2021/11/06 03:10:59;;;;;;;;;52.50;40.75;;;;;8.82;59.53;102602.53;4963233;28;45241;-65
2021/11/06 03:13:25;;;;;;;;;47.50;40.50;;;;;8.80;59.28;102597.25;4967114;28;45288;-65
2021/11/06 03:15:51;;;;;;;;;51.75;41.25;;;;;8.77;59.54;102603.31;4958704;28;45276;-65
2021/11/06 03:18:17;;;;;;;;;42.25;37.25;;;;;8.79;59.39;102611.19;4958643;28;45396;-65
2021/11/06 03:20:42;;;;;;;;;46.50;39.75;;;;;8.77;59.31;102613.78;4958329;28;46169;-65
2021/11/06 03:23:07;;;;;;;;;40.00;35.50;;;;;8.77;59.21;102618.16;4979980;28;45384;-65
2021/11/06 03:25:33;;;;;;;;;47.50;38.00;;;;;8.74;59.60;102621.59;4975582;28;45306;-65
2021/11/06 03:27:58;;;;;;;;;49.75;40.75;;;;;8.71;59.65;102613.66;4958435;28;45324;-65
2021/11/06 03:30:24;;;;;;;;;50.25;38.25;;;;;8.69;59.25;102614.47;4958203;28;46465;-65
2021/11/06 03:32:50;;;;;;;;;46.25;37.25;;;;;8.67;59.51;102616.19;4958386;28;45326;-65
2021/11/06 03:35:16;;;;;;;;;46.25;37.00;;;;;8.64;59.40;102611.75;4956979;28;45552;-65
2021/11/06 03:37:42;;;;;;;;;41.25;37.50;;;;;8.62;59.32;102614.31;4958025;28;45388;-65
2021/11/06 03:40:08;;;;;;;;;25.75;19.25;;;;;8.58;59.55;102602.00;4956846;28;47034;-65
2021/11/06 03:42:33;;;;;;;;;42.25;36.50;;;;;8.55;59.69;102603.66;4958260;28;45308;-65
2021/11/06 03:44:59;;;;;;;;;44.25;37.00;;;;;8.55;59.46;102606.28;4994209;28;45352;-65
2021/11/06 03:47:24;;;;;;;;;45.75;38.00;;;;;8.50;59.68;102607.91;5007114;28;45356;-65
2021/11/06 03:49:50;;;;;;;;;40.50;35.25;;;;;8.49;59.53;102611.38;4961120;28;47435;-65
2021/11/06 03:52:16;;;;;;;;;44.50;36.00;;;;;8.44;59.63;102613.88;4967534;28;45314;-65
2021/11/06 03:54:42;;;;;;;;;50.50;39.25;;;;;8.44;59.69;102613.88;4972435;28;45342;-65
2021/11/06 03:57:08;;;;;;;;;41.50;36.25;;;;;8.42;59.59;102611.19;4967316;28;45398;-65
2021/11/06 03:59:34;;;;;;;;;38.75;36.00;;;;;8.39;59.74;102611.13;4957690;28;46182;-65
2021/11/06 04:01:59;;;;;;;;;43.25;34.75;;;;;8.37;59.61;102612.81;4958017;28;45374;-65
2021/11/06 04:04:25;;;;;;;;;39.50;35.25;;;;;8.36;59.75;102616.25;4957976;28;45276;-65
2021/11/06 04:06:50;;;;;;;;;44.75;38.50;;;;;8.33;59.40;102610.97;4957619;28;45392;-65
2021/11/06 04:09:16;;;;;;;;;39.75;36.25;;;;;8.30;59.48;102610.88;4957767;28;46287;-65
2021/11/06 04:11:41;;;;;;;;;47.50;39.75;;;;;8.30;59.54;102610.88;4968266;28;45362;-65
2021/11/06 04:14:06;;;;;;;;;39.25;34.25;;;;;8.27;59.85;102616.03;4990424;28;45391;-65
2021/11/06 04:16:32;;;;;;;;;47.00;37.00;;;;;8.28;59.74;102617.81;4967101;28;45220;-65
2021/11/06 04:18:58;;;;;;;;;36.25;34.00;;;;;8.25;59.43;102623.88;4957611;28;46103;-65
2021/11/06 04:21:24;;;;;;;;;42.75;36.25;;;;;8.24;59.68;102621.22;4957503;28;45394;-65
2021/11/06 04:23:49;;;;;;;;;38.50;34.50;;;;;8.22;59.67;102629.00;4957735;28;45197;-65
2021/11/06 04:26:15;;;;;;;;;43.50;35.25;;;;;8.20;59.60;102627.22;4957654;28;46057;-65
2021/11/06 04:28:40;;;;;;;;;37.25;34.75;;;;;8.19;59.73;102638.53;4957424;28;45336;-66
2021/11/06 04:31:05;;;;;;;;;41.25;34.50;;;;;8.16;59.72;102638.47;4956386;28;45767;-65
2021/11/06 04:33:31;;;;;;;;;46.25;39.00;;;;;8.13;59.75;102637.53;4957552;28;45300;-65
2021/11/06 04:35:56;;;;;;;;;43.75;37.75;;;;;8.11;59.84;102639.22;4957387;28;45152;-65
2021/11/06 04:38:21;;;;;;;;;50.50;41.50;;;;;8.09;59.59;102634.81;4957216;28;46052;-66
2021/11/06 04:40:47;;;;;;;;;37.25;32.50;;;;;8.04;59.74;102639.91;4957450;28;45473;-65
2021/11/06 04:43:12;;;;;;;;;41.50;38.50;;;;;8.06;59.72;102639.94;4957405;28;45260;-66
2021/11/06 04:45:38;;;;;;;;;42.75;36.75;;;;;8.02;59.62;102636.34;4957395;28;45520;-66
2021/11/06 04:48:04;;;;;;;;;40.75;35.25;;;;;8.00;59.97;102643.31;4959394;28;45385;-66
2021/11/06 04:50:29;;;;;;;;;32.75;31.50;;;;;7.98;59.78;102640.63;4973815;28;45237;-66
2021/11/06 04:52:55;;;;;;;;;42.75;34.00;;;;;7.96;59.61;102637.09;4967916;28;45428;-66
2021/11/06 04:55:20;;;;;;;;;40.25;35.25;;;;;7.92;59.83;102626.47;4978630;28;45379;-66
2021/11/06 04:57:46;;;;;;;;;36.75;34.00;;;;;7.93;59.81;102637.00;4971781;28;46863;-66
2021/11/06 05:00:14;;;;;;;;;48.50;40.75;;;;;7.90;59.77;102634.31;4976503;28;45302;-66
2021/11/06 05:02:39;;;;;;;;;38.75;35.50;;;;;7.79;59.61;102626.16;4977675;28;45473;-66
2021/11/06 05:05:06;;;;;;;;;37.75;34.25;;;;;7.86;59.96;102649.88;4979704;28;45305;-66
2021/11/06 05:07:32;;;;;;;;;42.00;35.00;;;;;7.84;59.97;102641.13;4977783;28;45454;-66
2021/11/06 05:09:57;;;;;;;;;37.25;34.25;;;;;7.79;59.87;102649.69;4978544;28;45360;-66
2021/11/06 05:12:23;;;;;;;;;39.75;35.00;;;;;7.78;59.76;102642.69;4979424;28;45410;-66
2021/11/06 05:14:50;;;;;;;;;42.50;36.00;;;;;7.77;59.82;102650.50;4979417;27;45338;-67
2021/11/06 05:17:16;;;;;;;;;32.50;30.75;;;;;7.73;59.76;102649.53;4979138;28;46510;-66
2021/11/06 05:19:42;;;;;;;;;34.50;32.25;;;;;7.72;59.93;102639.94;4979451;28;45368;-66
2021/11/06 05:22:08;;;;;;;;;41.00;36.50;;;;;7.70;59.98;102643.31;4979136;28;45298;-66
2021/11/06 05:24:34;;;;;;;;;37.75;30.50;;;;;7.69;59.93;102639.81;4979529;28;45249;-66
2021/11/06 05:27:00;;;;;;;;;48.50;40.00;;;;;7.67;59.63;102638.00;4978930;28;45224;-66
2021/11/06 05:29:25;;;;;;;;;39.25;36.00;;;;;7.65;59.76;102638.84;4979496;28;45348;-66
2021/11/06 05:31:51;;;;;;;;;40.75;36.75;;;;;7.63;59.96;102631.78;4979228;28;45366;-66
2021/11/06 05:34:16;;;;;;;;;41.00;36.00;;;;;7.61;59.85;102634.38;4979449;28;45196;-66
2021/11/06 05:36:41;;;;;;;;;45.00;35.75;;;;;7.60;59.93;102634.34;4978788;28;45414;-66
2021/11/06 05:39:07;;;;;;;;;31.00;25.75;;;;;7.59;59.98;102635.19;4979352;28;45545;-66
2021/11/06 05:41:32;;;;;;;;;39.50;34.75;;;;;7.57;59.95;102642.09;4979086;28;45402;-66
2021/11/06 05:43:58;;;;;;;;;54.50;43.75;;;;;7.56;60.22;102640.31;4979130;28;45323;-66
2021/11/06 05:46:23;;;;;;;;;37.00;30.75;;;;;7.51;59.71;102634.97;4961304;28;45412;-66
2021/11/06 05:48:49;;;;;;;;;46.25;36.75;;;;;7.52;59.94;102636.75;4969363;28;45429;-66
2021/11/06 05:51:15;;;;;;;;;38.75;34.00;;;;;7.50;59.79;102630.56;4959912;28;45390;-66
2021/11/06 05:53:40;;;;;;;;;37.50;35.50;;;;;7.49;59.88;102634.91;4967877;28;45311;-66
2021/11/06 05:56:06;;;;;;;;;38.50;32.50;;;;;7.46;59.96;102633.94;4987840;28;45422;-66
2021/11/06 05:58:32;;;;;;;;;39.25;35.00;;;;;7.47;59.90;102643.53;4959390;28;45254;-66
2021/11/06 06:00:57;;;;;;;;;39.50;35.25;;;;;7.45;59.82;102635.66;4959558;28;45289;-66
2021/11/06 06:03:22;;;;;;;;;42.50;36.00;;;;;7.43;59.47;102639.97;4959598;28;45485;-66
2021/11/06 06:05:48;;;;;;;;;34.00;31.00;;;;;7.40;60.07;102631.16;4959379;28;45482;-66
2021/11/06 06:08:14;;;;;;;;;40.50;34.50;;;;;7.38;59.93;102632.81;4962795;28;45348;-66
2021/11/06 06:10:39;;;;;;;;;31.50;31.25;;;;;7.37;60.00;102645.03;4971522;28;45323;-66
2021/11/06 06:13:05;;;;;;;;;32.25;32.00;;;;;7.39;59.76;102650.31;4958967;28;45301;-66
2021/11/06 06:15:30;;;;;;;;;40.50;35.25;;;;;7.37;59.66;102642.41;4958237;28;45361;-66
2021/11/06 06:17:57;;;;;;;;;46.50;37.75;;;;;7.36;59.84;102650.19;4957975;28;45328;-66
2021/11/06 06:20:23;;;;;;;;;37.00;32.25;;;;;7.36;59.92;102656.31;4959520;28;45431;-66
2021/11/06 06:22:48;;;;;;;;;41.75;34.50;;;;;7.34;59.85;102655.38;4957995;28;45446;-66
2021/11/06 06:25:15;;;;;;;;;39.25;35.25;;;;;7.34;60.05;102663.22;4959055;28;46435;-66
2021/11/06 06:27:41;;;;;;;;;40.00;34.25;;;;;7.34;59.92;102664.97;4960447;28;45426;-66
2021/11/06 06:30:09;;;;;;;;;43.75;38.00;;;;;7.32;59.73;102663.19;4970100;28;45285;-66
2021/11/06 06:32:37;;;;;;;;;32.50;31.00;;;;;7.32;59.90;102662.31;4942158;28;45282;-67
2021/11/06 06:35:05;;;;;;;;;41.75;38.00;;;;;7.32;59.78;102664.94;4958941;28;45441;-66
2021/11/06 06:37:30;;;;;;;;;39.25;35.25;;;;;7.30;60.01;102664.00;4964086;28;45486;-66
2021/11/06 06:39:57;;;;;;;;;41.75;37.75;;;;;7.29;59.88;102670.94;4972236;28;45846;-69
2021/11/06 06:42:23;;;;;;;;;37.75;34.50;;;;;7.28;60.07;102677.03;4964275;28;45254;-66
2021/11/06 06:44:53;;;;;;;;;37.75;32.75;;;;;7.24;60.06;102679.50;4986740;28;47098;-66
2021/11/06 06:47:19;;;;;;;;;51.50;41.50;;;;;7.26;59.98;102686.53;4958915;28;45361;-66
2021/11/06 06:49:46;;;;;;;;;42.50;36.75;;;;;7.26;59.84;102688.28;4972245;28;45587;-66
2021/11/06 06:52:13;;;;;;;;;43.50;37.00;;;;;7.24;60.14;102689.97;4969029;28;45379;-66
2021/11/06 06:54:38;;;;;;;;;38.50;35.00;;;;;7.23;60.04;102694.31;4988611;28;45490;-67
2021/11/06 06:57:04;;;;;;;;;42.00;38.25;;;;;7.22;59.94;102692.53;4968342;28;45802;-67
2021/11/06 06:59:33;;;;;;;;;34.50;31.50;;;;;7.22;59.93;102695.16;4973380;28;45401;-67
2021/11/06 07:01:59;;;;;;;;;39.25;36.00;;;;;7.21;59.89;102697.69;4967803;28;45419;-67
2021/11/06 07:04:25;;;;;;;;;36.00;32.50;;;;;7.20;60.09;102694.19;4959728;28;45347;-67
2021/11/06 07:06:52;;;;;;;;;41.00;36.75;;;;;7.19;60.16;102683.69;4960066;28;45447;-68
2021/11/06 07:09:21;;;;;;;;;46.75;40.00;;;;;7.15;60.14;102674.88;4959041;28;45162;-67
2021/11/06 07:11:48;;;;;;;;;45.50;38.25;;;;;7.16;60.13;102685.38;4958719;28;45467;-67
2021/11/06 07:14:15;;;;;;;;;48.50;40.25;;;;;7.16;60.10;102689.72;4958781;28;45379;-67
2021/11/06 07:16:41;;;;;;;;;50.50;40.50;;;;;7.16;60.09;102687.09;4959597;28;45263;-67
2021/11/06 07:19:07;;;;;;;;;55.00;44.50;;;;;7.16;60.20;102685.38;4959385;28;45178;-67
2021/11/06 07:21:32;;;;;;;;;45.50;39.75;;;;;7.15;60.38;102685.31;4965543;28;45341;-67
2021/11/06 07:23:58;;;;;;;;;51.00;40.75;;;;;7.15;60.20;102685.31;4958516;28;46038;-67
2021/11/06 07:26:23;;;;;;;;;45.75;39.75;;;;;7.14;60.23;102683.53;4973702;27;45411;-66
2021/11/06 07:28:49;;;;;;;;;50.00;38.50;;;;;7.11;60.35;102686.09;4958908;28;45270;-66
2021/11/06 07:31:15;;;;;;;;;50.25;40.75;;;;;7.14;60.14;102694.91;4958788;28;45513;-67
2021/11/06 07:33:41;;;;;;;;;46.25;36.75;;;;;7.05;60.18;102676.31;4958969;28;46266;-66
2021/11/06 07:36:06;;;;;;;;;46.50;37.00;;;;;7.12;60.24;102691.34;4959611;28;45292;-66
2021/11/06 07:38:32;;;;;;;;;40.50;35.00;;;;;7.12;60.32;102691.34;4958160;28;45573;-66
2021/11/06 07:40:58;;;;;;;;;52.50;40.75;;;;;7.13;60.11;102690.50;4925715;28;45550;-66
2021/11/06 07:43:23;;;;;;;;;36.25;34.25;;;;;7.12;60.42;102680.91;4958144;28;45412;-66
2021/11/06 07:45:49;;;;;;;;;35.75;34.50;;;;;7.15;60.14;102686.19;4965430;28;45284;-66
2021/11/06 07:48:15;;;;;;;;;45.50;36.75;;;;;7.12;60.42;102686.13;4964665;28;45439;-66
2021/11/06 07:50:40;;;;;;;;;42.50;37.00;;;;;7.12;60.47;102686.13;4984055;28;45485;-67
2021/11/06 07:53:06;;;;;;;;;40.25;33.75;;;;;7.16;60.22;102695.81;4961695;28;45518;-66
2021/11/06 07:55:36;;;;;;;;;45.75;38.50;;;;;7.15;60.44;102683.59;4983976;28;45408;-65
2021/11/06 07:58:02;;;;;;;;;53.25;43.50;;;;;7.19;60.19;102691.53;4968050;28;45442;-66
2021/11/06 08:00:27;;;;;;;;;38.00;35.50;;;;;7.20;60.07;102688.97;4964309;28;45312;-66
2021/11/06 08:02:53;;;;;;;;;39.50;37.25;;;;;7.24;60.44;102692.56;4965545;28;46281;-66
2021/11/06 08:05:18;;;;;;;;;39.50;34.25;;;;;7.25;60.38;102692.59;4968423;28;45312;-66
2021/11/06 08:07:44;;;;;;;;;48.50;41.50;;;;;7.29;60.47;102701.44;4969131;28;45473;-66
2021/11/06 08:10:10;;;;;;;;;43.25;38.00;;;;;7.25;60.19;102682.16;4965453;28;45444;-66
2021/11/06 08:12:38;;;;;;;;;49.00;39.25;;;;;7.37;60.50;102704.28;4967759;28;47911;-66
2021/11/06 08:15:06;;;;;;;;;40.50;36.25;;;;;7.41;60.37;102699.19;4971717;28;45521;-67
2021/11/06 08:17:32;;;;;;;;;41.25;36.50;;;;;7.45;60.58;102701.06;4969242;27;45506;-66
2021/11/06 08:19:57;;;;;;;;;40.50;36.75;;;;;7.49;60.47;102702.03;4963962;28;45525;-66
2021/11/06 08:22:22;;;;;;;;;43.25;36.50;;;;;7.54;60.34;102705.69;4965870;28;46025;-66
2021/11/06 08:24:48;;;;;;;;;49.50;41.00;;;;;7.59;60.56;102711.06;4965072;28;45249;-66
2021/11/06 08:27:14;;;;;;;;;41.50;35.50;;;;;7.62;60.46;102703.28;4967192;28;45402;-66
2021/11/06 08:29:40;;;;;;;;;41.50;38.00;;;;;7.71;60.39;102711.44;4966367;28;45561;-66
2021/11/06 08:32:06;;;;;;;;;35.75;34.25;;;;;7.77;60.58;102703.75;4965615;28;47022;-66
2021/11/06 08:34:31;;;;;;;;;34.50;34.00;;;;;7.87;60.71;102706.63;4981450;28;45426;-66
2021/11/06 08:36:58;;;;;;;;;39.00;34.25;;;;;7.94;60.68;102698.97;4964906;28;45455;-66
2021/11/06 08:39:23;;;;;;;;;37.00;34.25;;;;;8.03;60.85;102702.72;4968541;28;45671;-60
2021/11/06 08:41:50;;;;;;;;;44.75;36.75;;;;;8.12;60.59;102700.34;4969027;28;46359;-61
2021/11/06 08:44:17;;;;;;;;;39.75;34.25;;;;;8.20;60.76;102703.16;4968009;28;45328;-64
2021/11/06 08:46:45;;;;;;;;;32.25;28.75;;;;;8.28;60.62;102694.66;4968887;27;45350;-61
2021/11/06 08:49:14;;;;;;;;;55.50;44.00;;;;;8.36;60.61;102702.72;5017448;28;45665;-60
2021/11/06 08:51:41;;;;;;;;;46.25;36.00;;;;;8.47;60.59;102702.16;4967484;28;46559;-65
2021/11/06 08:54:07;;;;;;;;;44.50;35.00;;;;;8.55;60.86;102700.63;4974941;28;45653;-67
2021/11/06 08:56:33;;;;;;;;;51.25;41.50;;;;;8.65;60.85;102702.63;4981274;27;45630;-66
2021/11/06 08:58:58;;;;;;;;;38.25;33.25;;;;;8.74;60.79;102699.34;4960113;28;45398;-66
2021/11/06 09:01:24;;;;;;;;;40.00;33.75;;;;;8.86;60.77;102699.66;4959674;28;45427;-58
2021/11/06 09:03:50;;;;;;;;;35.50;33.25;;;;;8.96;60.88;102699.88;4959904;28;45353;-64
2021/11/06 09:06:15;;;;;;;;;34.75;30.25;;;;;9.10;60.76;102701.94;4970152;28;45474;-64
2021/11/06 09:08:42;;;;;;;;;37.75;33.25;;;;;9.21;60.75;102698.72;4968563;28;45241;-61
2021/11/06 09:11:11;;;;;;;;;33.25;30.75;;;;;9.35;60.74;102705.16;4968488;28;46341;-64
2021/11/06 09:13:38;;;;;;;;;47.75;39.75;;;;;9.52;60.58;102707.25;4964796;28;45335;-62
2021/11/06 09:16:06;;;;;;;;;34.25;31.00;;;;;9.67;60.68;102704.97;4963309;28;45433;-63
2021/11/06 09:18:32;;;;;;;;;29.00;27.75;;;;;9.79;60.94;102693.81;4966812;28;45391;-64
2021/11/06 09:20:58;;;;;;;;;32.50;31.00;;;;;9.95;60.79;102699.38;4968572;28;45896;-63
2021/11/06 09:23:24;;;;;;;;;32.75;30.25;;;;;10.09;60.74;102696.16;4968191;28;45483;-58
2021/11/06 09:25:50;;;;;;;;;34.00;31.75;;;;;10.26;60.77;102700.84;4966966;28;45534;-62
2021/11/06 09:28:15;;;;;;;;;42.25;34.00;;;;;10.40;60.60;102694.13;4964368;28;45828;-59
2021/11/06 09:30:41;;;;;;;;;38.25;34.25;;;;;10.59;61.07;102691.84;4968316;28;45955;-58
2021/11/06 09:33:06;;;;;;;;;40.00;34.75;;;;;10.74;61.17;102693.81;4961637;28;45189;-63
2021/11/06 09:35:31;;;;;;;;;37.25;34.00;;;;;10.93;60.75;102687.13;4985345;28;45262;-63
2021/11/06 09:37:58;;;;;;;;;37.75;34.25;;;;;11.12;60.93;102696.16;4983892;28;45729;-63
2021/11/06 09:40:24;;;;;;;;;39.75;36.50;;;;;11.30;61.17;102700.78;4959608;28;45472;-64
2021/11/06 09:42:50;;;;;;;;;36.25;33.75;;;;;11.47;61.10;102695.78;4958223;28;45906;-65
2021/11/06 09:45:16;;;;;;;;;41.50;35.25;;;;;11.65;61.05;102692.47;4959815;28;45370;-65
2021/11/06 09:47:45;;;;;;;;;42.00;35.50;;;;;11.84;60.79;102693.59;4958676;28;45270;-64
2021/11/06 09:50:14;;;;;;;;;48.50;39.25;;;;;12.01;60.91;102685.91;4961494;28;45546;-61
2021/11/06 09:52:39;;;;;;;;;36.75;32.75;;;;;12.15;60.80;102688.69;4964162;28;45543;-61
2021/11/06 09:55:05;;;;;;;;;35.75;32.50;;;;;12.28;60.55;102686.19;4970983;28;45335;-61
2021/11/06 09:57:31;;;;;;;;;36.25;33.25;;;;;12.42;60.49;102691.59;4972186;28;45533;-64
2021/11/06 09:59:57;;;;;;;;;38.75;32.75;;;;;12.57;60.52;102677.66;4978591;28;45407;-64
2021/11/06 10:02:23;;;;;;;;;34.25;32.00;;;;;12.68;60.51;102671.59;4978770;28;45323;-64
2021/11/06 10:04:48;;;;;;;;;38.00;31.50;;;;;12.88;60.10;102686.69;4976434;28;45169;-66
2021/11/06 10:07:21;;;;;;;;;32.75;31.00;;;;;13.04;60.43;102678.88;4972282;28;45281;-65
2021/11/06 10:10:02;;;;;;;;;29.75;27.50;;;;;13.22;60.36;102686.91;4974372;28;46005;-66
2021/11/06 10:12:52;;;;;;;;;37.00;33.00;;;;;13.37;60.08;102686.16;4961329;28;45865;-66
2021/11/06 10:15:20;;;;;;;;;31.75;30.50;;;;;13.53;59.72;102686.22;4974602;28;45518;-66
2021/11/06 10:17:46;;;;;;;;;36.00;31.25;;;;;13.64;60.13;102674.78;4968264;28;45297;-65
2021/11/06 10:20:18;;;;;;;;;33.50;29.75;;;;;13.76;59.60;102684.53;4978137;28;46513;-65
2021/11/06 10:22:44;;;;;;;;;28.00;27.00;;;;;13.87;59.63;102673.13;4964878;28;45770;-65
2021/11/06 10:25:09;;;;;;;;;38.25;30.25;;;;;13.93;59.45;102667.84;4972365;28;45262;-68
2021/11/06 10:27:35;;;;;;;;;32.25;28.75;;;;;14.09;59.68;102674.06;4970532;28;45384;-66
2021/11/06 10:30:18;;;;;;;;;30.00;28.75;;;;;14.19;59.50;102673.19;4978372;28;46282;-66
2021/11/06 10:32:55;;;;;;;;;30.00;26.75;;;;;14.27;58.73;102681.13;4986248;28;45314;-66
2021/11/06 10:35:23;;;;;;;;;28.00;28.00;;;;;14.37;59.03;102674.97;4967831;28;45252;-67
2021/11/06 10:38:00;;;;;;;;;25.00;24.00;;;;;14.44;58.45;102662.66;4978101;28;45270;-67
2021/11/06 10:40:30;;;;;;;;;27.25;25.75;;;;;14.50;58.42;102659.09;4973411;28;45357;-66
2021/11/06 10:42:59;;;;;;;;;35.00;29.75;;;;;14.60;58.40;102668.78;4972764;28;45411;-67
2021/11/06 10:45:31;;;;;;;;;27.00;25.00;;;;;14.69;57.88;102657.34;4970610;28;45244;-67
2021/11/06 10:47:59;;;;;;;;;23.75;23.00;;;;;14.74;57.47;102655.56;4972041;28;45533;-67
2021/11/06 10:51:04;;;;;;;;;23.00;22.75;;;;;14.84;57.70;102665.31;4965547;28;46203;-68
2021/11/06 10:53:39;;;;;;;;;21.75;19.00;;;;;14.92;57.29;102670.56;4947255;28;45463;-67
2021/11/06 10:56:14;;;;;;;;;21.50;20.00;;;;;15.02;57.12;102658.19;4965954;28;45486;-66
2021/11/06 10:58:41;;;;;;;;;24.75;24.75;;;;;15.10;56.87;102653.75;4976744;28;45493;-66
2021/11/06 11:01:10;;;;;;;;;15.50;15.25;;;;;15.17;57.12;102644.91;4975813;28;47414;-66
2021/11/06 11:03:42;;;;;;;;;18.75;18.75;;;;;15.23;56.77;102646.66;4977971;28;45387;-65
2021/11/06 11:06:37;;;;;;;;;16.75;16.75;;;;;15.32;56.66;102643.09;4969054;28;45708;-66
2021/11/06 11:09:04;;;;;;;;;15.50;15.00;;;;;15.35;56.62;102632.50;4961327;28;45286;-68
2021/11/06 11:11:32;;;;;;;;;16.75;16.75;;;;;15.47;56.19;102642.16;4966755;28;45459;-66